Time;durP1;ratioP1;P1;durP2;ratioP2;P2;SDS_P1;SDS_P2;PMS_P1;PMS_P2;Temp;Humidity;BMP_temperature;BMP_pressure;BME280_temperature;BME280_humidity;BME280_pressure;Samples;Min_cycle;Max_cycle;Signal;HPM_P1;HPM_P2
2023/05/03 00:02:09;;;;;;;6.20;3.58;;;;;;;5.36;92.78;102825.75;5007425;28;20033;-63
2023/05/03 00:04:34;;;;;;;7.03;3.38;;;;;;;5.27;94.79;102829.41;5005200;28;20163;-60
2023/05/03 00:06:59;;;;;;;5.90;3.33;;;;;;;5.28;95.29;102832.97;5005417;28;20100;-60
2023/05/03 00:09:25;;;;;;;6.05;3.20;;;;;;;5.38;93.49;102828.38;5020504;28;20029;-60
2023/05/03 00:11:50;;;;;;;4.85;3.25;;;;;;;5.29;93.35;102830.09;5011674;28;20377;-60
2023/05/03 00:14:15;;;;;;;5.60;3.53;;;;;;;5.28;94.99;102824.81;5011913;28;20033;-60
2023/05/03 00:16:40;;;;;;;8.30;3.33;;;;;;;5.29;93.92;102834.69;5013976;28;20029;-58
2023/05/03 00:19:06;;;;;;;4.80;3.78;;;;;;;5.29;94.24;102829.25;5020923;28;20064;-61
2023/05/03 00:21:31;;;;;;;5.85;3.38;;;;;;;5.26;94.98;102829.53;5023087;28;20057;-60
2023/05/03 00:23:56;;;;;;;4.75;3.10;;;;;;;5.36;93.76;102824.91;5013394;28;20132;-61
2023/05/03 00:26:22;;;;;;;5.55;3.67;;;;;;;5.22;93.51;102818.09;5019283;28;20029;-60
2023/05/03 00:28:47;;;;;;;7.05;3.38;;;;;;;5.25;93.40;102827.81;5018941;28;20053;-58
2023/05/03 00:31:12;;;;;;;4.55;3.35;;;;;;;5.23;94.43;102818.94;5005101;28;20107;-61
2023/05/03 00:33:38;;;;;;;5.82;3.25;;;;;;;5.21;95.12;102825.38;5006035;28;20055;-61
2023/05/03 00:36:11;;;;;;;4.65;3.20;;;;;;;5.29;92.74;102818.34;5020009;28;20032;-61
2023/05/03 00:38:37;;;;;;;4.93;3.00;;;;;;;5.17;93.26;102815.81;4986572;28;20042;-60
2023/05/03 00:41:03;;;;;;;5.53;3.15;;;;;;;5.29;91.57;102826.53;5006843;28;20120;-60
2023/05/03 00:43:29;;;;;;;5.05;3.20;;;;;;;5.21;91.24;102827.25;5025149;28;20033;-60
2023/05/03 00:45:54;;;;;;;6.07;3.35;;;;;;;5.23;91.30;102821.66;5015853;28;20480;-61
2023/05/03 00:48:20;;;;;;;5.20;3.40;;;;;;;5.07;92.64;102831.31;5018890;28;20112;-60
2023/05/03 00:50:46;;;;;;;4.93;3.30;;;;;;;5.03;94.69;102834.47;5009317;28;20103;-56
2023/05/03 00:53:12;;;;;;;5.43;3.25;;;;;;;5.04;94.47;102837.03;5025482;28;20044;-61
2023/05/03 00:55:39;;;;;;;6.97;3.53;;;;;;;5.27;91.58;102825.78;5024367;28;20111;-60
2023/05/03 00:58:05;;;;;;;5.75;3.40;;;;;;;5.19;91.69;102830.13;5004741;28;20066;-61
2023/05/03 01:00:31;;;;;;;6.43;3.38;;;;;;;5.15;91.30;102827.84;5015761;28;20421;-60
2023/05/03 01:02:56;;;;;;;8.10;3.50;;;;;;;5.06;91.74;102823.25;5025733;28;20601;-61
2023/05/03 01:05:21;;;;;;;5.80;3.60;;;;;;;5.24;90.36;102820.66;5024150;28;20057;-60
2023/05/03 01:08:13;;;;;;;5.40;3.67;;;;;;;5.13;90.74;102821.69;5024250;28;20026;-58
2023/05/03 01:10:58;;;;;;;6.20;3.33;;;;;;;5.34;89.43;102816.91;5023149;28;20034;-61
2023/05/03 01:13:50;;;;;;;5.55;3.30;;;;;;;5.31;89.13;102822.63;5017253;28;20419;-60
2023/05/03 01:16:38;;;;;;;6.35;3.80;;;;;;;4.97;91.58;102819.56;5020045;28;20092;-60
2023/05/03 01:19:12;;;;;;;7.22;3.70;;;;;;;4.91;93.51;102826.44;5023435;28;20038;-60
2023/05/03 01:21:42;;;;;;;6.60;4.00;;;;;;;4.76;95.58;102824.28;5028185;28;20108;-60
2023/05/03 01:24:16;;;;;;;6.38;4.13;;;;;;;4.74;95.65;102824.44;5027823;28;20029;-60
2023/05/03 01:26:42;;;;;;;5.43;3.65;;;;;;;4.75;94.90;102826.16;4990855;28;20034;-61
2023/05/03 01:29:07;;;;;;;6.45;4.00;;;;;;;4.70;95.97;102828.44;5001668;28;20033;-60
2023/05/03 01:31:47;;;;;;;6.55;3.50;;;;;;;4.66;96.86;102838.78;5026365;28;20092;-61
2023/05/03 01:34:15;;;;;;;5.63;3.40;;;;;;;4.74;95.62;102845.38;5020768;28;20377;-61
2023/05/03 01:36:42;;;;;;;;;;;;;;;4.84;93.98;102833.47;5018465;28;20030;-61
2023/05/03 01:39:15;;;;;;;6.75;3.33;;;;;;;4.78;94.41;102834.03;5007510;28;19925;-60
2023/05/03 01:41:41;;;;;;;7.45;3.90;;;;;;;4.58;95.83;102837.78;5006329;28;20037;-61
2023/05/03 01:44:08;;;;;;;6.13;3.47;;;;;;;4.78;94.84;102830.47;5003326;28;20145;-61
2023/05/03 01:46:33;;;;;;;6.10;3.40;;;;;;;4.87;92.58;102833.19;5021864;28;20040;-60
2023/05/03 01:48:59;;;;;;;6.68;3.67;;;;;;;4.91;92.37;102831.00;5028753;28;20021;-61
2023/05/03 01:51:24;;;;;;;6.15;2.85;;;;;;;5.01;91.07;102836.44;5026291;28;20025;-60
2023/05/03 01:53:49;;;;;;;7.22;3.53;;;;;;;4.87;91.86;102835.06;5029430;28;20033;-60
2023/05/03 01:56:15;;;;;;;5.55;3.60;;;;;;;4.75;93.20;102836.19;5017430;28;20049;-61
2023/05/03 01:58:40;;;;;;;7.80;3.80;;;;;;;4.81;91.99;102835.59;5013301;28;20392;-61
2023/05/03 02:01:06;;;;;;;5.90;4.10;;;;;;;4.75;92.71;102833.47;5016442;28;20025;-60
2023/05/03 02:03:32;;;;;;;5.68;4.00;;;;;;;4.60;94.12;102836.63;5023102;28;20040;-61
2023/05/03 02:05:57;;;;;;;6.53;3.50;;;;;;;4.60;94.34;102828.44;5009769;28;20022;-61
2023/05/03 02:08:23;;;;;;;5.88;3.28;;;;;;;4.60;94.47;102830.31;5008649;28;20060;-61
2023/05/03 02:10:48;;;;;;;6.65;4.10;;;;;;;4.53;94.94;102830.03;5005782;28;20018;-60
2023/05/03 02:13:13;;;;;;;6.65;3.70;;;;;;;4.34;96.82;102838.16;5009580;28;20034;-60
2023/05/03 02:15:39;;;;;;;6.82;4.13;;;;;;;4.32;96.92;102832.88;5018374;28;20022;-60
2023/05/03 02:18:04;;;;;;;6.50;3.88;;;;;;;4.32;97.36;102835.59;5008756;28;20041;-60
2023/05/03 02:20:34;;;;;;;7.97;4.13;;;;;;;4.30;97.53;102823.97;5017319;28;20037;-60
2023/05/03 02:22:59;;;;;;;6.78;4.07;;;;;;;4.25;97.64;102822.69;5026914;28;20041;-61
2023/05/03 02:25:25;;;;;;;7.35;4.18;;;;;;;4.41;96.48;102823.03;5027604;28;20025;-61
2023/05/03 02:27:50;;;;;;;5.57;3.38;;;;;;;4.38;96.07;102829.59;5011335;28;20112;-61
2023/05/03 02:30:15;;;;;;;6.03;4.03;;;;;;;4.24;97.10;102820.97;5024639;28;20361;-60
2023/05/03 02:32:40;;;;;;;7.40;4.32;;;;;;;4.14;97.46;102810.06;5027282;28;20048;-60
2023/05/03 02:35:06;;;;;;;8.07;4.50;;;;;;;4.20;97.25;102814.94;5027393;28;20027;-60
2023/05/03 02:37:31;;;;;;;7.45;3.80;;;;;;;4.26;96.73;102808.97;5019764;28;20034;-60
2023/05/03 02:39:57;;;;;;;7.60;4.43;;;;;;;4.15;97.16;102804.50;5015062;28;20377;-60
2023/05/03 02:42:22;;;;;;;5.82;3.75;;;;;;;4.18;96.87;102806.09;5006533;28;20038;-60
2023/05/03 02:44:48;;;;;;;8.15;3.65;;;;;;;4.30;95.89;102798.66;5042311;22;20084;-60
2023/05/03 02:47:13;;;;;;;6.70;4.40;;;;;;;4.09;97.23;102790.59;4984310;28;20027;-60
2023/05/03 02:49:38;;;;;;;7.85;4.13;;;;;;;4.13;96.56;102778.44;4983558;28;20025;-60
2023/05/03 02:52:03;;;;;;;7.28;4.03;;;;;;;4.04;96.68;102780.16;4967993;28;20093;-60
2023/05/03 02:54:29;;;;;;;5.43;4.25;;;;;;;4.03;97.16;102780.28;4980346;28;20026;-60
2023/05/03 02:56:54;;;;;;;8.00;4.05;;;;;;;3.94;97.77;102772.97;4987962;28;20422;-61
2023/05/03 02:59:19;;;;;;;5.07;3.90;;;;;;;3.79;99.00;102767.94;4987195;28;20133;-61
2023/05/03 03:01:45;;;;;;;5.97;4.05;;;;;;;4.00;97.51;102770.53;4985554;28;20046;-60
2023/05/03 03:04:11;;;;;;;5.70;3.42;;;;;;;4.01;97.07;102766.84;4988094;28;20030;-60
2023/05/03 03:06:36;;;;;;;7.78;4.05;;;;;;;3.93;97.51;102779.41;4986852;28;20088;-61
2023/05/03 03:09:02;;;;;;;6.60;4.18;;;;;;;3.95;97.53;102778.25;4987634;28;20403;-61
2023/05/03 03:11:28;;;;;;;6.70;4.00;;;;;;;3.86;98.46;102790.00;4987657;28;20026;-60
2023/05/03 03:13:53;;;;;;;6.93;4.40;;;;;;;3.90;98.65;102794.13;4988107;28;20035;-61
2023/05/03 03:16:18;;;;;;;6.32;3.90;;;;;;;3.84;100.00;102792.84;4987247;28;20041;-61
2023/05/03 03:18:44;;;;;;;4.93;4.10;;;;;;;3.78;100.00;102798.81;4986997;28;20030;-60
2023/05/03 03:21:09;;;;;;;6.55;4.22;;;;;;;3.78;100.00;102792.53;4988080;28;20626;-60
2023/05/03 03:23:34;;;;;;;6.03;4.18;;;;;;;3.75;100.00;102788.25;4987705;28;20045;-61
2023/05/03 03:26:00;;;;;;;5.40;4.13;;;;;;;3.71;100.00;102794.97;4982897;28;20031;-60
2023/05/03 03:28:25;;;;;;;6.63;4.20;;;;;;;3.68;100.00;102803.38;4987462;28;20437;-60
2023/05/03 03:30:50;;;;;;;7.00;4.35;;;;;;;3.70;100.00;102800.50;4985749;28;20030;-60
2023/05/03 03:33:16;;;;;;;6.82;4.25;;;;;;;3.70;100.00;102800.50;4987965;28;20033;-60
2023/05/03 03:35:41;;;;;;;7.28;4.28;;;;;;;3.66;100.00;102804.53;4984831;28;20037;-61
2023/05/03 03:38:06;;;;;;;6.55;4.07;;;;;;;3.61;100.00;102792.19;4986597;28;20027;-61
2023/05/03 03:40:32;;;;;;;7.10;4.28;;;;;;;3.77;100.00;102790.81;4987389;28;20033;-61
2023/05/03 03:42:57;;;;;;;6.68;4.22;;;;;;;3.79;100.00;102794.25;4987096;28;20114;-60
2023/05/03 03:45:22;;;;;;;7.38;4.50;;;;;;;3.70;100.00;102789.63;4986827;28;20042;-60
2023/05/03 03:47:48;;;;;;;6.22;4.20;;;;;;;3.68;100.00;102787.06;4987061;28;20050;-59
2023/05/03 03:50:13;;;;;;;9.05;5.20;;;;;;;3.71;99.82;102784.09;4988081;28;20026;-61
2023/05/03 03:52:39;;;;;;;6.22;4.40;;;;;;;3.73;99.55;102792.09;4986804;28;20027;-60
2023/05/03 03:55:05;;;;;;;6.97;4.25;;;;;;;3.65;100.00;102792.78;4987044;28;20034;-60
2023/05/03 03:57:30;;;;;;;8.65;3.95;;;;;;;3.58;100.00;102784.31;4987226;28;20113;-61
2023/05/03 03:59:59;;;;;;;5.45;4.20;;;;;;;3.79;99.49;102783.38;4986339;28;20022;-58
2023/05/03 04:02:27;;;;;;;7.03;4.28;;;;;;;3.83;97.74;102785.69;4987260;28;20034;-61
2023/05/03 04:04:52;;;;;;;7.00;4.30;;;;;;;3.67;99.58;102792.66;4986754;28;20145;-60
2023/05/03 04:07:17;;;;;;;7.90;4.68;;;;;;;3.64;100.00;102797.34;4984677;28;20496;-58
2023/05/03 04:09:43;;;;;;;8.85;4.95;;;;;;;3.59;100.00;102799.63;4987138;28;20042;-60
2023/05/03 04:12:08;;;;;;;6.03;4.20;;;;;;;3.55;100.00;102798.19;4986780;28;20470;-61
2023/05/03 04:14:34;;;;;;;7.90;5.05;;;;;;;3.49;100.00;102806.88;4986974;28;20033;-61
2023/05/03 04:17:00;;;;;;;6.85;4.30;;;;;;;3.44;100.00;102806.41;4986074;28;20022;-60
2023/05/03 04:19:25;;;;;;;5.97;4.72;;;;;;;3.37;100.00;102807.97;4986646;28;20015;-61
2023/05/03 04:21:51;;;;;;;6.63;4.75;;;;;;;3.32;100.00;102805.66;4986307;28;20026;-61
2023/05/03 04:24:16;;;;;;;7.07;4.65;;;;;;;3.29;100.00;102807.75;4987382;28;20045;-61
2023/05/03 04:26:43;;;;;;;5.70;4.57;;;;;;;3.30;100.00;102809.50;4986743;28;20026;-60
2023/05/03 04:29:10;;;;;;;8.07;4.80;;;;;;;3.30;100.00;102813.09;4986743;28;20018;-61
2023/05/03 04:31:36;;;;;;;9.33;4.73;;;;;;;3.38;100.00;102815.09;4986458;28;20698;-61
2023/05/03 04:34:01;;;;;;;7.82;4.80;;;;;;;3.45;100.00;102810.88;4986944;28;20109;-59
2023/05/03 04:36:28;;;;;;;7.85;5.03;;;;;;;3.44;100.00;102817.28;4986405;28;20034;-60
2023/05/03 04:38:54;;;;;;;7.03;4.68;;;;;;;3.57;100.00;102815.22;4986562;28;20015;-61
2023/05/03 04:41:20;;;;;;;6.88;4.60;;;;;;;3.63;100.00;102821.94;4987190;28;20026;-61
2023/05/03 04:43:45;;;;;;;7.68;4.65;;;;;;;3.56;100.00;102831.66;4989581;28;20026;-59
2023/05/03 04:46:11;;;;;;;7.40;4.28;;;;;;;3.59;100.00;102834.06;4990260;28;20031;-60
2023/05/03 04:48:36;;;;;;;9.85;4.57;;;;;;;3.86;99.25;102844.34;4990878;28;20495;-60
2023/05/03 04:51:01;;;;;;;9.00;4.82;;;;;;;3.83;99.69;102845.47;4989793;28;20038;-61
2023/05/03 04:53:27;;;;;;;7.82;5.10;;;;;;;3.70;100.00;102854.84;4990954;28;20038;-61
2023/05/03 04:55:52;;;;;;;9.57;5.40;;;;;;;3.71;100.00;102856.59;4988705;28;20062;-60
2023/05/03 04:58:17;;;;;;;8.02;5.05;;;;;;;3.74;100.00;102848.16;4985513;28;20026;-57
2023/05/03 05:00:44;;;;;;;7.25;5.30;;;;;;;3.78;100.00;102865.91;4989753;28;20026;-61
2023/05/03 05:03:09;;;;;;;5.80;5.10;;;;;;;3.84;100.00;102863.50;4989605;28;20547;-60
2023/05/03 05:05:34;;;;;;;7.15;5.20;;;;;;;3.88;100.00;102866.81;4990068;28;20030;-61
2023/05/03 05:08:00;;;;;;;7.97;5.45;;;;;;;3.95;100.00;102873.41;4989369;28;20022;-61
2023/05/03 05:10:25;;;;;;;8.18;5.20;;;;;;;3.99;100.00;102874.88;4990478;28;20118;-61
2023/05/03 05:12:51;;;;;;;7.93;4.97;;;;;;;4.06;100.00;102867.91;4990500;28;20031;-60
2023/05/03 05:15:16;;;;;;;8.02;5.68;;;;;;;4.10;100.00;102869.31;4989820;28;20044;-61
2023/05/03 05:17:41;;;;;;;6.90;5.03;;;;;;;4.18;100.00;102871.34;4989760;28;20031;-61
2023/05/03 05:20:11;;;;;;;7.82;5.28;;;;;;;4.27;100.00;102864.22;4989475;28;20056;-61
2023/05/03 05:22:37;;;;;;;7.93;4.57;;;;;;;4.46;97.77;102864.28;4988876;28;20050;-61
2023/05/03 05:25:02;;;;;;;8.25;4.45;;;;;;;4.42;98.77;102862.81;4989337;28;20026;-61
2023/05/03 05:27:28;;;;;;;8.80;4.97;;;;;;;4.53;99.30;102865.41;4989556;28;20026;-60
2023/05/03 05:29:53;;;;;;;5.88;4.60;;;;;;;4.52;99.32;102866.41;4988987;28;20029;-61
2023/05/03 05:32:18;;;;;;;6.50;4.25;;;;;;;4.74;97.62;102865.28;4990328;28;20515;-61
2023/05/03 05:34:47;;;;;;;6.40;4.07;;;;;;;4.74;96.98;102872.59;4990656;28;20026;-61
2023/05/03 05:37:13;;;;;;;10.05;5.10;;;;;;;4.74;96.96;102872.59;4990179;28;20022;-60
2023/05/03 05:39:38;;;;;;;9.85;4.95;;;;;;;4.74;98.10;102859.81;4989835;28;20028;-61
2023/05/03 05:42:04;;;;;;;7.03;4.82;;;;;;;5.02;95.76;102873.56;4988512;28;20060;-62
2023/05/03 05:44:29;;;;;;;7.53;4.70;;;;;;;5.00;96.57;102872.88;4989271;28;20101;-61
2023/05/03 05:46:54;;;;;;;6.70;4.78;;;;;;;5.19;95.10;102872.84;4989556;28;20101;-61
2023/05/03 05:49:20;;;;;;;8.43;5.07;;;;;;;5.03;96.12;102873.44;4990628;28;20387;-58
2023/05/03 05:51:45;;;;;;;9.05;5.40;;;;;;;5.13;95.45;102877.00;4990027;28;20453;-60
2023/05/03 05:54:10;;;;;;;7.43;4.93;;;;;;;5.28;94.12;102874.69;4989311;28;20100;-60
2023/05/03 05:56:36;;;;;;;6.53;4.90;;;;;;;5.27;94.67;102875.72;4989497;28;20037;-61
2023/05/03 05:59:03;;;;;;;6.50;4.55;;;;;;;5.44;93.57;102877.66;4989660;28;20130;-61
2023/05/03 06:01:30;;;;;;;7.97;5.15;;;;;;;5.54;93.17;102877.66;4989325;28;20025;-60
2023/05/03 06:03:56;;;;;;;7.82;5.43;;;;;;;5.50;94.84;102878.09;4989392;28;20026;-60
2023/05/03 06:06:21;;;;;;;7.60;5.10;;;;;;;5.59;94.21;102879.94;4975790;28;20035;-61
2023/05/03 06:08:48;;;;;;;8.10;3.78;;;;;;;5.80;91.76;102885.16;4970544;28;20035;-61
2023/05/03 06:11:14;;;;;;;7.65;4.80;;;;;;;5.77;92.36;102875.41;4970469;28;20026;-61
2023/05/03 06:13:40;;;;;;;9.75;5.18;;;;;;;5.60;94.19;102881.66;4970558;28;20042;-61
2023/05/03 06:16:06;;;;;;;7.95;4.35;;;;;;;5.99;91.05;102876.94;4975880;28;20026;-61
2023/05/03 06:18:31;;;;;;;8.52;4.70;;;;;;;5.90;92.13;102875.09;4989222;28;20041;-60
2023/05/03 06:20:56;;;;;;;5.85;4.30;;;;;;;5.99;92.41;102866.03;4988714;28;20026;-61
2023/05/03 06:23:22;;;;;;;7.88;4.65;;;;;;;6.10;91.93;102863.09;4989571;28;20117;-59
2023/05/03 06:25:47;;;;;;;7.30;5.13;;;;;;;6.18;91.54;102862.31;4989006;28;20085;-60
2023/05/03 06:28:13;;;;;;;7.07;5.07;;;;;;;6.29;92.29;102861.28;4989627;28;20034;-60
2023/05/03 06:30:38;;;;;;;7.35;4.72;;;;;;;6.62;90.68;102857.88;4988909;28;20027;-61
2023/05/03 06:33:03;;;;;;;9.40;5.03;;;;;;;6.46;90.62;102864.03;4989129;28;20031;-61
2023/05/03 06:35:28;;;;;;;7.93;5.18;;;;;;;6.67;91.20;102855.53;4989010;28;20109;-61
2023/05/03 06:37:54;;;;;;;6.75;4.45;;;;;;;6.86;89.47;102843.59;4988311;28;20432;-61
2023/05/03 06:40:19;;;;;;;7.45;4.57;;;;;;;6.78;88.83;102851.69;4989127;28;20034;-61
2023/05/03 06:42:45;;;;;;;6.80;4.30;;;;;;;7.14;86.24;102846.19;4977062;28;20469;-60
2023/05/03 06:45:10;;;;;;;7.40;4.97;;;;;;;7.12;89.08;102849.09;4968417;28;20057;-59
2023/05/03 06:47:36;;;;;;;8.82;5.05;;;;;;;7.53;87.19;102841.19;4968812;28;20041;-60
2023/05/03 06:50:01;;;;;;;7.32;3.50;;;;;;;8.30;83.86;102840.13;4984168;28;20469;-61
2023/05/03 06:52:26;;;;;;;7.18;4.90;;;;;;;8.79;80.82;102840.25;4968079;28;20114;-61
2023/05/03 06:54:52;;;;;;;7.60;4.40;;;;;;;9.27;81.17;102840.41;4968959;28;20089;-59
2023/05/03 06:57:17;;;;;;;7.35;3.90;;;;;;;9.46;76.76;102837.31;4969237;28;20031;-59
2023/05/03 06:59:43;;;;;;;6.80;2.83;;;;;;;9.50;76.26;102841.41;4968556;28;20049;-60
2023/05/03 07:02:08;;;;;;;6.75;3.30;;;;;;;9.14;75.49;102832.72;4968948;28;20081;-61
2023/05/03 07:04:33;;;;;;;6.60;3.75;;;;;;;8.93;76.49;102836.00;4967836;28;20034;-60
2023/05/03 07:06:58;;;;;;;5.40;3.33;;;;;;;8.96;78.11;102840.25;4964196;28;20026;-60
2023/05/03 07:09:24;;;;;;;6.70;3.67;;;;;;;8.91;75.90;102849.00;4966880;28;20484;-61
2023/05/03 07:11:50;;;;;;;6.03;3.70;;;;;;;8.84;76.06;102837.00;4965567;28;20034;-59
2023/05/03 07:14:16;;;;;;;7.60;3.90;;;;;;;8.77;74.68;102839.59;4966173;28;20109;-59
2023/05/03 07:16:41;;;;;;;6.13;3.55;;;;;;;8.75;75.51;102838.88;4979738;28;20464;-59
2023/05/03 07:19:07;;;;;;;6.63;3.83;;;;;;;8.84;75.29;102845.22;4987866;28;20038;-61
2023/05/03 07:21:33;;;;;;;5.40;3.53;;;;;;;9.05;74.86;102844.72;4987339;28;20035;-61
2023/05/03 07:23:59;;;;;;;6.68;3.22;;;;;;;9.31;72.91;102839.91;4985473;28;20032;-60
2023/05/03 07:26:25;;;;;;;7.85;3.80;;;;;;;9.25;72.90;102839.75;5000837;28;20492;-61
2023/05/03 07:28:51;;;;;;;5.07;3.40;;;;;;;9.35;72.89;102841.25;4985721;28;20026;-60
2023/05/03 07:31:16;;;;;;;5.25;3.45;;;;;;;9.47;71.91;102832.66;4985129;28;20037;-61
2023/05/03 07:33:42;;;;;;;4.47;2.45;;;;;;;9.65;71.11;102836.06;4986088;28;20101;-61
2023/05/03 07:36:07;;;;;;;5.32;3.70;;;;;;;9.46;72.34;102839.19;4985046;28;20037;-60
2023/05/03 07:38:33;;;;;;;6.13;2.95;;;;;;;9.70;71.04;102832.78;4986107;28;20026;-61
2023/05/03 07:40:58;;;;;;;7.05;3.55;;;;;;;9.78;73.73;102824.50;4985322;28;20059;-60
2023/05/03 07:43:23;;;;;;;5.53;3.13;;;;;;;9.92;72.99;102821.03;4985746;28;20038;-60
2023/05/03 07:45:48;;;;;;;6.43;3.03;;;;;;;10.02;70.89;102812.59;4984561;28;20039;-60
2023/05/03 07:48:14;;;;;;;5.15;3.30;;;;;;;10.04;70.36;102816.88;4985799;28;20026;-59
2023/05/03 07:50:43;;;;;;;6.78;3.33;;;;;;;10.06;70.48;102813.94;4981745;28;20044;-61
2023/05/03 07:53:08;;;;;;;5.38;3.30;;;;;;;10.11;70.09;102809.63;4985105;28;20022;-60
2023/05/03 07:55:35;;;;;;;5.85;3.20;;;;;;;10.12;68.62;102796.75;4985550;28;20023;-60
2023/05/03 07:58:01;;;;;;;6.13;3.60;;;;;;;10.25;71.94;102805.28;4985764;28;20033;-61
2023/05/03 08:00:26;;;;;;;6.43;3.33;;;;;;;10.31;68.24;102793.59;4985050;28;20023;-61
2023/05/03 08:02:52;;;;;;;6.20;3.30;;;;;;;10.55;68.30;102795.31;4984646;28;20034;-61
2023/05/03 08:05:17;;;;;;;6.57;3.08;;;;;;;10.63;70.26;102787.00;4986204;28;20037;-61
2023/05/03 08:07:43;;;;;;;4.55;2.22;;;;;;;11.10;65.48;102783.16;4985126;28;20505;-61
2023/05/03 08:10:09;;;;;;;6.88;2.58;;;;;;;10.57;67.07;102786.88;4985019;28;20401;-61
2023/05/03 08:12:35;;;;;;;4.75;2.95;;;;;;;10.41;67.20;102781.50;4985104;28;20183;-61
2023/05/03 08:15:00;;;;;;;6.65;3.45;;;;;;;10.41;66.81;102778.75;4984256;28;20125;-61
2023/05/03 08:17:26;;;;;;;7.60;3.60;;;;;;;10.53;67.24;102774.53;4984681;28;20081;-61
2023/05/03 08:19:51;;;;;;;4.22;2.90;;;;;;;10.53;66.49;102774.53;4984737;28;20205;-61
2023/05/03 08:22:17;;;;;;;6.82;3.10;;;;;;;10.56;68.32;102783.28;4985287;28;20083;-58
2023/05/03 08:24:42;;;;;;;6.22;3.05;;;;;;;10.82;65.97;102777.41;4985596;28;20038;-61
2023/05/03 08:27:08;;;;;;;6.20;3.15;;;;;;;10.86;66.49;102781.50;4984833;28;20069;-61
2023/05/03 08:29:36;;;;;;;5.35;3.10;;;;;;;10.99;64.77;102778.09;4985119;28;20030;-62
2023/05/03 08:32:03;;;;;;;6.10;3.38;;;;;;;10.94;65.47;102782.44;4985544;28;20058;-60
2023/05/03 08:34:28;;;;;;;6.38;3.33;;;;;;;10.97;65.29;102773.84;4985224;28;20033;-59
2023/05/03 08:36:54;;;;;;;5.78;3.88;;;;;;;10.96;65.38;102772.97;4984660;28;20457;-61
2023/05/03 08:39:19;;;;;;;5.25;3.30;;;;;;;11.02;65.61;102769.47;4985423;28;20351;-61
2023/05/03 08:41:44;;;;;;;6.10;3.35;;;;;;;11.13;66.00;102765.41;4985210;28;20019;-60
2023/05/03 08:44:21;;;;;;;8.02;3.80;;;;;;;11.44;65.76;102768.84;4983931;28;20063;-60
2023/05/03 08:46:46;;;;;;;6.20;3.70;;;;;;;11.43;63.18;102767.16;4984020;28;20385;-61
2023/05/03 08:49:13;;;;;;;5.00;3.10;;;;;;;11.48;60.98;102768.47;4984914;28;20035;-60
2023/05/03 08:51:41;;;;;;;6.38;3.40;;;;;;;11.53;62.82;102771.53;4984417;28;20027;-60
2023/05/03 08:54:07;;;;;;;7.60;3.63;;;;;;;11.72;64.67;102767.34;4984868;28;20022;-58
2023/05/03 08:56:38;;;;;;;7.22;3.17;;;;;;;11.94;63.06;102771.88;4985249;28;20049;-60
2023/05/03 08:59:07;;;;;;;6.85;3.40;;;;;;;12.17;61.45;102774.50;4984184;28;20366;-61
2023/05/03 09:01:34;;;;;;;5.05;3.17;;;;;;;12.35;63.34;102780.41;4985009;28;20105;-60
2023/05/03 09:04:00;;;;;;;4.70;3.13;;;;;;;12.51;60.00;102787.56;4984578;28;20113;-61
2023/05/03 09:06:26;;;;;;;5.63;3.42;;;;;;;12.67;58.50;102786.47;4999433;28;20336;-61
2023/05/03 09:08:51;;;;;;;6.35;3.28;;;;;;;12.95;60.18;102783.75;4984864;28;20027;-61
2023/05/03 09:11:24;;;;;;;5.70;2.97;;;;;;;13.23;56.18;102775.53;4985279;28;20632;-61
2023/05/03 09:13:51;;;;;;;4.78;2.78;;;;;;;13.26;55.22;102786.16;4981819;28;20077;-61
2023/05/03 09:16:27;;;;;;;5.70;3.22;;;;;;;14.28;54.02;102780.72;4985282;28;20440;-60
2023/05/03 09:19:00;;;;;;;7.25;3.40;;;;;;;16.85;49.28;102783.16;4983888;28;20033;-61
2023/05/03 09:21:26;;;;;;;5.85;3.20;;;;;;;18.61;43.20;102776.03;4984258;28;20034;-61
2023/05/03 09:23:52;;;;;;;3.45;2.42;;;;;;;19.68;37.16;102775.91;4984433;28;20027;-61
2023/05/03 09:26:28;;;;;;;4.38;2.25;;;;;;;20.04;37.62;102784.19;4984555;28;20038;-61
2023/05/03 09:28:55;;;;;;;6.00;2.85;;;;;;;20.55;37.19;102780.50;4984451;28;20022;-62
2023/05/03 09:31:20;;;;;;;8.07;3.10;;;;;;;21.36;37.60;102785.81;4988275;28;20045;-62
2023/05/03 09:33:46;;;;;;;5.90;3.25;;;;;;;22.02;33.77;102776.38;4987676;28;20031;-58
2023/05/03 09:36:11;;;;;;;4.68;2.67;;;;;;;22.69;34.42;102775.16;4987709;28;20027;-62
2023/05/03 09:38:36;;;;;;;4.55;2.95;;;;;;;23.15;32.61;102772.78;4988260;28;20057;-62
2023/05/03 09:41:06;;;;;;;6.40;3.20;;;;;;;23.42;32.10;102774.63;4987704;28;20445;-62
2023/05/03 09:43:32;;;;;;;3.17;2.17;;;;;;;23.00;29.74;102772.66;4988239;28;20022;-62
2023/05/03 09:46:11;;;;;;;4.03;2.33;;;;;;;22.32;32.81;102761.06;4986840;28;20049;-62
2023/05/03 09:48:37;;;;;;;4.97;3.00;;;;;;;22.77;31.54;102769.09;4987986;28;20037;-62
2023/05/03 09:51:04;;;;;;;4.97;3.00;;;;;;;23.89;28.72;102760.63;4987585;28;20067;-61
2023/05/03 09:53:31;;;;;;;6.93;2.72;;;;;;;24.45;29.36;102762.81;4987964;28;20069;-62
2023/05/03 09:55:56;;;;;;;5.82;2.63;;;;;;;23.47;31.29;102760.66;4987706;28;20100;-62
2023/05/03 09:58:24;;;;;;;5.20;2.70;;;;;;;23.35;30.04;102757.22;4987927;28;20045;-61
2023/05/03 10:00:50;;;;;;;4.53;2.67;;;;;;;23.86;29.74;102751.91;4987283;28;20023;-61
2023/05/03 10:03:27;;;;;;;6.32;2.83;;;;;;;24.44;30.69;102752.69;4987932;28;20522;-62
2023/05/03 10:05:53;;;;;;;5.28;2.95;;;;;;;24.42;27.22;102767.00;4987138;28;20046;-61
2023/05/03 10:08:40;;;;;;;4.57;2.50;;;;;;;24.90;28.89;102762.00;4987819;28;20022;-61
2023/05/03 10:11:08;;;;;;;4.57;2.97;;;;;;;26.02;26.30;102758.13;4987484;28;20393;-61
2023/05/03 10:13:34;;;;;;;4.05;2.53;;;;;;;25.01;26.29;102751.59;4987393;28;20035;-59
2023/05/03 10:16:08;;;;;;;5.82;3.30;;;;;;;24.53;28.17;102759.41;4986315;28;20065;-61
2023/05/03 10:18:39;;;;;;;6.25;2.92;;;;;;;25.46;26.96;102752.69;4987350;28;20022;-62
2023/05/03 10:21:11;;;;;;;3.97;2.50;;;;;;;25.43;28.14;102756.03;4984579;28;20034;-62
2023/05/03 10:24:13;;;;;;;6.03;2.65;;;;;;;25.30;28.25;102757.50;4968758;28;20127;-61
2023/05/03 10:26:48;;;;;;;4.60;2.50;;;;;;;23.95;28.75;102755.88;4967901;28;20046;-61
2023/05/03 10:29:32;;;;;;;4.95;2.35;;;;;;;22.91;29.88;102754.66;4967478;28;20027;-61
2023/05/03 10:31:58;;;;;;;4.95;2.72;;;;;;;21.72;30.24;102760.03;4967608;28;20034;-59
2023/05/03 10:34:24;;;;;;;4.43;2.42;;;;;;;22.65;29.91;102754.38;4967450;28;20505;-62
2023/05/03 10:36:53;;;;;;;4.47;2.65;;;;;;;21.31;30.84;102763.38;4966511;28;20026;-61
2023/05/03 10:39:20;;;;;;;6.15;2.90;;;;;;;20.68;34.03;102756.97;4967580;28;20105;-61
2023/05/03 10:41:56;;;;;;;5.13;2.75;;;;;;;21.83;31.79;102762.97;4967180;28;20022;-61
2023/05/03 10:44:26;;;;;;;3.97;2.15;;;;;;;20.84;32.18;102756.16;4966135;28;20089;-60
2023/05/03 10:46:53;;;;;;;4.95;2.53;;;;;;;19.91;33.41;102757.41;4966819;28;20479;-61
2023/05/03 10:49:22;;;;;;;6.35;3.22;;;;;;;20.11;32.62;102752.25;4967845;28;20033;-61
2023/05/03 10:51:48;;;;;;;5.72;3.10;;;;;;;21.07;34.24;102755.13;4974058;28;20045;-62
2023/05/03 10:54:14;;;;;;;4.28;2.80;;;;;;;21.09;33.54;102749.31;4969884;28;20039;-62
2023/05/03 10:56:54;;;;;;;5.03;3.15;;;;;;;20.94;32.22;102747.13;4969022;28;20113;-58
2023/05/03 10:59:20;;;;;;;5.07;2.90;;;;;;;20.63;32.42;102742.94;4968727;28;20023;-61
2023/05/03 11:01:49;;;;;;;6.57;2.97;;;;;;;20.47;33.99;102744.59;4968950;28;20073;-62
2023/05/03 11:04:39;;;;;;;6.22;2.95;;;;;;;19.11;36.32;102745.03;4977806;28;20089;-61
2023/05/03 11:07:04;;;;;;;6.20;3.17;;;;;;;18.17;36.41;102737.53;4976353;28;20045;-61
2023/05/03 11:09:33;;;;;;;5.32;3.28;;;;;;;17.52;42.07;102736.16;4988227;28;20030;-62
2023/05/03 11:12:03;;;;;;;2.83;2.25;;;;;;;17.44;39.08;102739.28;4988390;28;20470;-62
2023/05/03 11:14:28;;;;;;;5.72;3.33;;;;;;;16.97;43.37;102736.09;4987666;28;20022;-61
2023/05/03 11:16:56;;;;;;;5.30;3.20;;;;;;;17.31;45.34;102723.59;4987723;28;20036;-61
2023/05/03 11:19:21;;;;;;;6.13;3.45;;;;;;;17.75;40.71;102718.84;4988245;28;20265;-61
2023/05/03 11:21:47;;;;;;;4.38;2.92;;;;;;;17.35;40.38;102721.19;4987594;28;20053;-60
2023/05/03 11:24:12;;;;;;;4.63;3.05;;;;;;;17.00;42.59;102720.91;4988199;28;20034;-58
2023/05/03 11:26:38;;;;;;;5.55;3.28;;;;;;;17.01;43.71;102726.22;4987961;28;20458;-61
2023/05/03 11:29:04;;;;;;;5.57;3.45;;;;;;;16.78;43.39;102723.25;4987112;28;20026;-62